Time;durP1;ratioP1;P1;durP2;ratioP2;P2;SDS_P1;SDS_P2;PMS_P1;PMS_P2;Temp;Humidity;BMP_temperature;BMP_pressure;BME280_temperature;BME280_humidity;BME280_pressure;Samples;Min_cycle;Max_cycle;Signal;HPM_P1;HPM_P2
2024/04/01 00:02:22;;;;;;;50.08;19.20;;;;;;;;;;6088699;23;20011;-78
2024/04/01 00:04:47;;;;;;;49.33;20.60;;;;;;;;;;6090331;23;20018;-80
2024/04/01 00:07:13;;;;;;;54.25;18.67;;;;;;;;;;6068360;23;20013;-81
2024/04/01 00:09:38;;;;;;;57.65;21.13;;;;;;;;;;6068647;23;20011;-80
2024/04/01 00:12:04;;;;;;;59.60;20.17;;;;;;;;;;6068324;23;20397;-80
2024/04/01 00:14:30;;;;;;;52.10;17.85;;;;;;;;;;6066627;23;20605;-81
2024/04/01 00:16:55;;;;;;;46.50;18.48;;;;;;;;;;6089985;23;20460;-79
2024/04/01 00:19:21;;;;;;;54.15;18.20;;;;;;;;;;6090428;23;20340;-79
2024/04/01 00:21:46;;;;;;;51.58;17.95;;;;;;;;;;6090367;23;20062;-80
2024/04/01 00:24:12;;;;;;;47.63;18.00;;;;;;;;;;6089841;23;20455;-80
2024/04/01 00:26:40;;;;;;;50.00;18.70;;;;;;;;;;6065345;23;20086;-80
2024/04/01 00:29:09;;;;;;;48.97;19.73;;;;;;;;;;6065344;23;20038;-80
2024/04/01 00:31:34;;;;;;;44.53;17.92;;;;;;;;;;6065681;23;20015;-80
2024/04/01 00:34:00;;;;;;;48.72;19.42;;;;;;;;;;6089735;23;20007;-78
2024/04/01 00:36:26;;;;;;;47.90;18.00;;;;;;;;;;6065811;23;20007;-78
2024/04/01 00:38:55;;;;;;;55.10;18.42;;;;;;;;;;6089866;23;20099;-80
2024/04/01 00:41:26;;;;;;;54.00;19.88;;;;;;;;;;6066184;23;20550;-80
2024/04/01 00:43:52;;;;;;;49.28;19.58;;;;;;;;;;6090092;23;20038;-81
2024/04/01 00:46:18;;;;;;;54.45;20.08;;;;;;;;;;6065439;23;20326;-80
2024/04/01 00:48:43;;;;;;;55.22;22.73;;;;;;;;;;6065999;23;20014;-81
2024/04/01 00:51:09;;;;;;;49.90;19.25;;;;;;;;;;6067366;23;20015;-80
2024/04/01 00:53:34;;;;;;;49.63;18.70;;;;;;;;;;6065718;23;20538;-79
2024/04/01 00:56:02;;;;;;;46.22;17.98;;;;;;;;;;6042001;23;20089;-79
2024/04/01 00:58:28;;;;;;;64.53;19.95;;;;;;;;;;6042018;23;20011;-79
2024/04/01 01:00:53;;;;;;;47.45;19.20;;;;;;;;;;6042225;23;20006;-79
2024/04/01 01:03:19;;;;;;;51.03;18.17;;;;;;;;;;6068190;23;20511;-79
2024/04/01 01:05:45;;;;;;;48.53;18.15;;;;;;;;;;6043727;23;20093;-79
2024/04/01 01:08:11;;;;;;;41.22;18.05;;;;;;;;;;6021861;23;20050;-80
2024/04/01 01:10:36;;;;;;;42.28;17.95;;;;;;;;;;6074399;23;20006;-81
2024/04/01 01:13:02;;;;;;;48.60;17.35;;;;;;;;;;6031285;23;20066;-80
2024/04/01 01:15:28;;;;;;;46.63;17.52;;;;;;;;;;6051777;23;20006;-81
2024/04/01 01:17:54;;;;;;;49.20;19.92;;;;;;;;;;6022260;23;20011;-80
2024/04/01 01:20:20;;;;;;;54.30;19.30;;;;;;;;;;6069187;23;20007;-80
2024/04/01 01:22:46;;;;;;;53.33;18.25;;;;;;;;;;6067477;23;20030;-80
2024/04/01 01:25:11;;;;;;;44.28;17.70;;;;;;;;;;6043400;23;20011;-79
2024/04/01 01:27:38;;;;;;;53.97;18.75;;;;;;;;;;6067319;23;20041;-79
2024/04/01 01:30:04;;;;;;;47.72;18.23;;;;;;;;;;6043740;23;20011;-78
2024/04/01 01:32:32;;;;;;;49.38;18.33;;;;;;;;;;6043890;23;20026;-81
2024/04/01 01:34:58;;;;;;;44.30;18.20;;;;;;;;;;6043668;23;20015;-79
2024/04/01 01:37:23;;;;;;;54.00;21.42;;;;;;;;;;6020244;23;20088;-80
2024/04/01 01:39:49;;;;;;;48.42;19.02;;;;;;;;;;6068587;23;20006;-79
2024/04/01 01:42:14;;;;;;;44.80;19.48;;;;;;;;;;6046329;23;20013;-79
2024/04/01 01:44:40;;;;;;;41.42;18.23;;;;;;;;;;6045655;23;20464;-80
2024/04/01 01:47:05;;;;;;;41.92;19.77;;;;;;;;;;6071471;23;20039;-81
2024/04/01 01:49:31;;;;;;;44.55;19.17;;;;;;;;;;6044920;23;20010;-80
2024/04/01 01:51:57;;;;;;;54.03;20.15;;;;;;;;;;6058502;23;20018;-79
2024/04/01 01:54:23;;;;;;;48.40;20.38;;;;;;;;;;6092188;23;20013;-81
2024/04/01 01:56:48;;;;;;;46.17;19.17;;;;;;;;;;6091388;23;20078;-80
2024/04/01 01:59:14;;;;;;;57.28;20.30;;;;;;;;;;6067112;23;20010;-79
2024/04/01 02:01:39;;;;;;;53.22;20.67;;;;;;;;;;6091000;23;20011;-80
2024/04/01 02:04:05;;;;;;;55.05;21.15;;;;;;;;;;6066761;23;20201;-79
2024/04/01 02:06:30;;;;;;;52.55;20.70;;;;;;;;;;6090583;23;20010;-78
2024/04/01 02:08:56;;;;;;;59.53;23.05;;;;;;;;;;6090677;23;20015;-79
2024/04/01 02:11:21;;;;;;;47.72;20.63;;;;;;;;;;6090477;23;20352;-79
2024/04/01 02:13:47;;;;;;;46.63;19.35;;;;;;;;;;6089794;23;20326;-79
2024/04/01 02:16:13;;;;;;;53.97;19.90;;;;;;;;;;6090714;23;20009;-79
2024/04/01 02:18:38;;;;;;;51.95;23.27;;;;;;;;;;6066520;23;20341;-79
2024/04/01 02:21:04;;;;;;;52.28;21.73;;;;;;;;;;6068137;23;20029;-79
2024/04/01 02:23:31;;;;;;;56.22;21.38;;;;;;;;;;6066364;23;20089;-79
2024/04/01 02:26:01;;;;;;;57.92;20.95;;;;;;;;;;6066174;23;20005;-79
2024/04/01 02:28:28;;;;;;;65.90;21.27;;;;;;;;;;6090159;23;20063;-78
2024/04/01 02:30:53;;;;;;;52.97;20.35;;;;;;;;;;6068007;23;20003;-78
2024/04/01 02:33:19;;;;;;;47.80;21.52;;;;;;;;;;6090157;23;20003;-78
2024/04/01 02:35:44;;;;;;;53.50;20.75;;;;;;;;;;6089925;23;20515;-79
2024/04/01 02:38:10;;;;;;;48.95;21.35;;;;;;;;;;6090137;23;20002;-80
2024/04/01 02:40:35;;;;;;;59.88;22.00;;;;;;;;;;6066424;23;20022;-79
2024/04/01 02:43:03;;;;;;;49.50;20.13;;;;;;;;;;6066781;23;20007;-79
2024/04/01 02:45:29;;;;;;;54.20;21.13;;;;;;;;;;6090394;23;20444;-79
2024/04/01 02:47:54;;;;;;;55.33;21.33;;;;;;;;;;6042059;23;20015;-79
2024/04/01 02:50:20;;;;;;;49.33;20.85;;;;;;;;;;6090086;23;20508;-79
2024/04/01 02:52:47;;;;;;;54.13;20.23;;;;;;;;;;6039104;23;20015;-80
2024/04/01 02:55:13;;;;;;;52.08;21.65;;;;;;;;;;6039187;23;20052;-80
2024/04/01 02:57:39;;;;;;;50.78;20.70;;;;;;;;;;6039560;23;20433;-80
2024/04/01 03:00:05;;;;;;;51.53;19.67;;;;;;;;;;6038636;23;20450;-79
2024/04/01 03:02:33;;;;;;;61.95;22.30;;;;;;;;;;6015717;23;20397;-79
2024/04/01 03:04:58;;;;;;;57.33;25.37;;;;;;;;;;6039363;23;20007;-79
2024/04/01 03:07:24;;;;;;;52.25;21.40;;;;;;;;;;6039080;23;20087;-79
2024/04/01 03:09:54;;;;;;;55.53;21.65;;;;;;;;;;6025878;23;20078;-79
2024/04/01 03:12:19;;;;;;;59.55;22.17;;;;;;;;;;6020244;23;20012;-79
2024/04/01 03:14:45;;;;;;;52.97;21.38;;;;;;;;;;6018086;23;20016;-79
2024/04/01 03:17:11;;;;;;;44.25;20.50;;;;;;;;;;6017593;23;20003;-78
2024/04/01 03:19:37;;;;;;;54.25;20.85;;;;;;;;;;6037425;23;20098;-79
2024/04/01 03:22:03;;;;;;;57.22;21.85;;;;;;;;;;6013607;23;20387;-79
2024/04/01 03:24:29;;;;;;;42.83;20.83;;;;;;;;;;6013199;23;20353;-79
2024/04/01 03:26:54;;;;;;;50.35;21.20;;;;;;;;;;6013602;23;20007;-79
2024/04/01 03:29:21;;;;;;;58.95;21.85;;;;;;;;;;6013649;23;20015;-80
2024/04/01 03:31:46;;;;;;;59.40;22.52;;;;;;;;;;6037197;23;20042;-79
2024/04/01 03:34:12;;;;;;;50.97;22.48;;;;;;;;;;5990007;23;20012;-79
2024/04/01 03:36:38;;;;;;;53.72;20.75;;;;;;;;;;6037065;23;20003;-79
2024/04/01 03:39:04;;;;;;;51.80;21.25;;;;;;;;;;6037441;23;20329;-79
2024/04/01 03:41:30;;;;;;;41.28;18.63;;;;;;;;;;6013770;23;20018;-80
2024/04/01 03:43:56;;;;;;;48.85;19.85;;;;;;;;;;6013073;23;20015;-80
2024/04/01 03:46:21;;;;;;;53.60;20.17;;;;;;;;;;6014375;23;20460;-80
2024/04/01 03:48:47;;;;;;;48.28;20.42;;;;;;;;;;6015386;23;20015;-80
2024/04/01 03:51:12;;;;;;;49.10;18.95;;;;;;;;;;6033470;23;20011;-81
2024/04/01 03:53:38;;;;;;;54.72;20.65;;;;;;;;;;6070964;23;20015;-80
2024/04/01 03:56:04;;;;;;;53.15;21.23;;;;;;;;;;6095900;23;20003;-80
2024/04/01 03:58:29;;;;;;;44.05;18.38;;;;;;;;;;6093213;23;20014;-79
2024/04/01 04:00:55;;;;;;;46.00;19.48;;;;;;;;;;6092594;23;20382;-80
2024/04/01 04:03:20;;;;;;;46.95;20.00;;;;;;;;;;6091129;23;20388;-79
2024/04/01 04:05:46;;;;;;;56.13;21.98;;;;;;;;;;6090979;23;20007;-79
2024/04/01 04:08:11;;;;;;;56.15;19.95;;;;;;;;;;6090197;23;20404;-79
2024/04/01 04:10:37;;;;;;;46.50;19.38;;;;;;;;;;6066051;23;20066;-79
2024/04/01 04:13:02;;;;;;;42.05;17.75;;;;;;;;;;6089995;23;20029;-80
2024/04/01 04:15:28;;;;;;;47.30;18.30;;;;;;;;;;6089599;23;20017;-79
2024/04/01 04:17:54;;;;;;;59.10;21.35;;;;;;;;;;6089950;23;20007;-79
2024/04/01 04:20:19;;;;;;;50.38;19.77;;;;;;;;;;6066018;23;20008;-79
2024/04/01 04:22:45;;;;;;;49.03;18.30;;;;;;;;;;6090033;23;20014;-80
2024/04/01 04:25:11;;;;;;;46.95;18.70;;;;;;;;;;6089598;23;20018;-79
2024/04/01 04:27:36;;;;;;;49.95;19.30;;;;;;;;;;6065808;23;20018;-79
2024/04/01 04:30:02;;;;;;;44.78;19.15;;;;;;;;;;6090224;23;20022;-79
2024/04/01 04:32:28;;;;;;;57.35;19.75;;;;;;;;;;6065767;23;20015;-78
2024/04/01 04:34:53;;;;;;;51.67;18.48;;;;;;;;;;6065609;23;20015;-82
2024/04/01 04:37:19;;;;;;;43.85;17.35;;;;;;;;;;6066340;23;20003;-79
2024/04/01 04:39:44;;;;;;;44.40;18.27;;;;;;;;;;6091698;23;20018;-78
2024/04/01 04:42:10;;;;;;;50.15;20.40;;;;;;;;;;6091528;23;20006;-79
2024/04/01 04:44:36;;;;;;;64.55;20.90;;;;;;;;;;6067539;23;20010;-80
2024/04/01 04:47:01;;;;;;;46.13;16.63;;;;;;;;;;6091600;23;20014;-78
2024/04/01 04:49:28;;;;;;;60.53;18.08;;;;;;;;;;6091511;23;20003;-78
2024/04/01 04:51:54;;;;;;;47.30;17.77;;;;;;;;;;6069143;23;20086;-79
2024/04/01 04:54:20;;;;;;;53.13;18.75;;;;;;;;;;6043441;23;20034;-80
2024/04/01 04:56:45;;;;;;;53.65;17.70;;;;;;;;;;6067320;23;20015;-78
2024/04/01 04:59:11;;;;;;;44.03;17.20;;;;;;;;;;6043649;23;20007;-79
2024/04/01 05:01:36;;;;;;;49.05;16.83;;;;;;;;;;6044145;23;20441;-79
2024/04/01 05:04:02;;;;;;;43.85;17.92;;;;;;;;;;6067798;23;20018;-80
2024/04/01 05:06:27;;;;;;;56.70;18.02;;;;;;;;;;6043801;23;20010;-80
2024/04/01 05:08:53;;;;;;;46.15;18.23;;;;;;;;;;6043364;23;20102;-80
2024/04/01 05:11:18;;;;;;;44.58;17.23;;;;;;;;;;6043446;23;20015;-80
2024/04/01 05:13:44;;;;;;;50.08;16.75;;;;;;;;;;5996162;23;20449;-79
2024/04/01 05:16:11;;;;;;;39.67;17.17;;;;;;;;;;6043358;23;20002;-79
2024/04/01 05:18:36;;;;;;;51.33;15.77;;;;;;;;;;6043838;23;20449;-79
2024/04/01 05:21:02;;;;;;;49.95;16.80;;;;;;;;;;6068489;23;20014;-80
2024/04/01 05:23:28;;;;;;;55.88;18.30;;;;;;;;;;6049858;23;20011;-80
2024/04/01 05:25:54;;;;;;;49.47;17.30;;;;;;;;;;6075099;23;20003;-80
2024/04/01 05:28:20;;;;;;;51.67;16.88;;;;;;;;;;6078672;23;20035;-80
2024/04/01 05:30:52;;;;;;;53.75;17.42;;;;;;;;;;6079640;23;20011;-80
2024/04/01 05:33:18;;;;;;;56.42;17.42;;;;;;;;;;6029331;23;20022;-80
2024/04/01 05:35:45;;;;;;;45.10;16.13;;;;;;;;;;6046645;23;20011;-80
2024/04/01 05:38:10;;;;;;;49.22;16.38;;;;;;;;;;6067269;23;20430;-80
2024/04/01 05:40:36;;;;;;;42.38;16.98;;;;;;;;;;6043330;23;20108;-80
2024/04/01 05:43:01;;;;;;;42.80;16.73;;;;;;;;;;6068917;23;20007;-80
2024/04/01 05:45:27;;;;;;;50.67;16.30;;;;;;;;;;6043462;23;20011;-80
2024/04/01 05:47:53;;;;;;;49.10;16.58;;;;;;;;;;6042840;23;20011;-80
2024/04/01 05:50:19;;;;;;;49.78;16.83;;;;;;;;;;6043838;23;20010;-80
2024/04/01 05:52:44;;;;;;;42.10;14.88;;;;;;;;;;6069183;23;20021;-80
2024/04/01 05:55:13;;;;;;;52.35;15.98;;;;;;;;;;6043233;23;20021;-80
2024/04/01 05:57:39;;;;;;;52.33;15.93;;;;;;;;;;6043560;23;20086;-79
2024/04/01 06:00:05;;;;;;;44.40;17.27;;;;;;;;;;6068805;23;20034;-79
2024/04/01 06:02:37;;;;;;;47.38;16.27;;;;;;;;;;6068807;23;20019;-79
2024/04/01 06:05:03;;;;;;;61.08;17.75;;;;;;;;;;6068535;23;20034;-79
2024/04/01 06:07:29;;;;;;;52.15;15.40;;;;;;;;;;6042797;23;20038;-79
2024/04/01 06:09:55;;;;;;;49.00;16.30;;;;;;;;;;6066864;23;20429;-79
2024/04/01 06:12:21;;;;;;;49.92;16.38;;;;;;;;;;6066789;23;20019;-79
2024/04/01 06:14:46;;;;;;;45.47;16.27;;;;;;;;;;6019397;23;20532;-79
2024/04/01 06:17:14;;;;;;;42.40;14.75;;;;;;;;;;6042976;23;20010;-79
2024/04/01 06:19:40;;;;;;;44.97;15.23;;;;;;;;;;6068504;23;20030;-79
2024/04/01 06:22:05;;;;;;;47.55;15.70;;;;;;;;;;6066891;23;20010;-81
2024/04/01 06:24:31;;;;;;;40.47;14.23;;;;;;;;;;6068208;23;20007;-80
2024/04/01 06:26:56;;;;;;;47.55;15.13;;;;;;;;;;6067561;23;20011;-80
2024/04/01 06:29:22;;;;;;;44.88;15.68;;;;;;;;;;6067659;23;20034;-80
2024/04/01 06:31:48;;;;;;;46.90;15.60;;;;;;;;;;6047497;23;20058;-80
2024/04/01 06:34:13;;;;;;;49.20;16.15;;;;;;;;;;6049990;23;20014;-81
2024/04/01 06:36:39;;;;;;;59.78;15.05;;;;;;;;;;6069845;23;20007;-80
2024/04/01 06:39:06;;;;;;;43.35;14.88;;;;;;;;;;6043536;23;20087;-81
2024/04/01 06:41:31;;;;;;;40.28;13.30;;;;;;;;;;6043112;23;20453;-79
2024/04/01 06:43:57;;;;;;;38.17;13.02;;;;;;;;;;6042727;23;20063;-79
2024/04/01 06:46:22;;;;;;;40.08;13.73;;;;;;;;;;6042609;23;20067;-81
2024/04/01 06:48:48;;;;;;;52.88;13.95;;;;;;;;;;6019928;23;20062;-81
2024/04/01 06:51:13;;;;;;;45.28;12.85;;;;;;;;;;6048661;23;20011;-79
2024/04/01 06:53:39;;;;;;;39.30;13.20;;;;;;;;;;6067500;23;20006;-80
2024/04/01 06:56:04;;;;;;;41.22;12.40;;;;;;;;;;6069753;23;20007;-79
2024/04/01 06:58:30;;;;;;;49.10;13.60;;;;;;;;;;6068717;23;20006;-80
2024/04/01 07:00:56;;;;;;;41.88;13.52;;;;;;;;;;6070928;23;20007;-79
2024/04/01 07:03:21;;;;;;;40.22;13.30;;;;;;;;;;6070467;23;20014;-80
2024/04/01 07:05:47;;;;;;;42.75;12.90;;;;;;;;;;6094103;23;20002;-79
2024/04/01 07:08:12;;;;;;;42.60;13.63;;;;;;;;;;6092412;23;20006;-80
2024/04/01 07:10:38;;;;;;;48.75;13.38;;;;;;;;;;6066693;23;20014;-80
2024/04/01 07:13:03;;;;;;;50.63;12.30;;;;;;;;;;6066633;23;20007;-80
2024/04/01 07:15:29;;;;;;;33.53;10.63;;;;;;;;;;6068380;23;20038;-80
2024/04/01 07:17:54;;;;;;;47.75;12.10;;;;;;;;;;6068078;23;20003;-80
2024/04/01 07:20:20;;;;;;;39.03;11.02;;;;;;;;;;6091151;23;20003;-81
2024/04/01 07:22:47;;;;;;;47.38;14.35;;;;;;;;;;6093212;23;20010;-80
2024/04/01 07:25:13;;;;;;;28.20;11.30;;;;;;;;;;6042606;23;20034;-80
2024/04/01 07:27:38;;;;;;;42.17;11.30;;;;;;;;;;6068842;23;20463;-80
2024/04/01 07:30:05;;;;;;;42.25;10.93;;;;;;;;;;6067962;23;20323;-80
2024/04/01 07:32:32;;;;;;;35.88;10.70;;;;;;;;;;6068336;23;20015;-80
2024/04/01 07:34:58;;;;;;;35.22;11.70;;;;;;;;;;6092401;23;20011;-80
2024/04/01 07:37:23;;;;;;;36.05;10.20;;;;;;;;;;6092267;23;20107;-80
2024/04/01 07:39:49;;;;;;;44.95;11.48;;;;;;;;;;6093371;23;20003;-80
2024/04/01 07:42:15;;;;;;;41.42;10.45;;;;;;;;;;6070256;23;20038;-81
2024/04/01 07:44:40;;;;;;;42.22;10.18;;;;;;;;;;6092728;23;20015;-80
2024/04/01 07:47:06;;;;;;;41.60;11.23;;;;;;;;;;6092131;23;20018;-80
2024/04/01 07:49:32;;;;;;;41.65;9.15;;;;;;;;;;6067410;23;20018;-79
2024/04/01 07:51:58;;;;;;;43.13;10.30;;;;;;;;;;6093374;23;20024;-80
2024/04/01 07:54:24;;;;;;;37.42;9.73;;;;;;;;;;6070350;23;20027;-80
2024/04/01 07:56:49;;;;;;;30.60;9.43;;;;;;;;;;6093733;23;20014;-79
2024/04/01 07:59:15;;;;;;;37.50;8.95;;;;;;;;;;6066892;23;20007;-80
2024/04/01 08:01:41;;;;;;;38.17;9.88;;;;;;;;;;6091105;23;20003;-80
2024/04/01 08:04:06;;;;;;;37.35;9.38;;;;;;;;;;6090480;23;20075;-80
2024/04/01 08:06:32;;;;;;;29.73;10.05;;;;;;;;;;6066130;23;20066;-79
2024/04/01 08:08:57;;;;;;;48.83;10.20;;;;;;;;;;6066522;23;20094;-80
2024/04/01 08:11:23;;;;;;;34.58;8.90;;;;;;;;;;6089943;23;20006;-80
2024/04/01 08:13:49;;;;;;;42.42;10.98;;;;;;;;;;6065904;23;20010;-81
2024/04/01 08:16:14;;;;;;;41.53;8.45;;;;;;;;;;6090404;23;20006;-79
2024/04/01 08:18:40;;;;;;;32.42;7.95;;;;;;;;;;6068592;23;20077;-79
2024/04/01 08:21:05;;;;;;;34.42;9.43;;;;;;;;;;6091749;23;20011;-79
2024/04/01 08:23:31;;;;;;;42.53;9.93;;;;;;;;;;6069254;23;20086;-80
2024/04/01 08:25:57;;;;;;;36.05;8.10;;;;;;;;;;6068026;23;20010;-80
2024/04/01 08:28:22;;;;;;;41.58;9.88;;;;;;;;;;6067506;23;20007;-81
2024/04/01 08:30:48;;;;;;;42.03;8.45;;;;;;;;;;6091476;23;20007;-79
2024/04/01 08:33:14;;;;;;;34.38;8.40;;;;;;;;;;6067481;23;20013;-80
2024/04/01 08:35:40;;;;;;;29.88;7.25;;;;;;;;;;6068459;23;20054;-79
2024/04/01 08:38:05;;;;;;;30.50;7.25;;;;;;;;;;6096427;23;19999;-79
2024/04/01 08:40:39;;;;;;;27.92;7.38;;;;;;;;;;6071564;23;20018;-79
2024/04/01 08:43:10;;;;;;;42.38;7.90;;;;;;;;;;6096413;23;20003;-79
2024/04/01 08:45:37;;;;;;;33.28;7.75;;;;;;;;;;6095597;23;20037;-80
2024/04/01 08:48:07;;;;;;;42.15;9.63;;;;;;;;;;6072687;23;20007;-79
2024/04/01 08:50:36;;;;;;;41.20;9.43;;;;;;;;;;6093552;23;20015;-79
2024/04/01 08:53:12;;;;;;;36.78;7.90;;;;;;;;;;6021158;23;20349;-79
2024/04/01 08:55:37;;;;;;;29.63;8.38;;;;;;;;;;6070825;23;20010;-80
2024/04/01 08:58:03;;;;;;;33.50;7.28;;;;;;;;;;6045992;23;20430;-79
2024/04/01 09:00:30;;;;;;;23.88;7.15;;;;;;;;;;6073100;23;20010;-80
2024/04/01 09:02:55;;;;;;;32.42;6.65;;;;;;;;;;6053459;23;20007;-79
2024/04/01 09:05:21;;;;;;;31.80;6.68;;;;;;;;;;6028823;23;20022;-80
2024/04/01 09:07:47;;;;;;;34.70;6.93;;;;;;;;;;6078015;23;20015;-79
2024/04/01 09:10:12;;;;;;;28.98;6.70;;;;;;;;;;6054286;23;20469;-81
2024/04/01 09:12:42;;;;;;;32.60;7.00;;;;;;;;;;6044878;23;20090;-80
2024/04/01 09:15:12;;;;;;;29.13;6.43;;;;;;;;;;6046615;23;20023;-81
2024/04/01 09:17:37;;;;;;;32.92;6.88;;;;;;;;;;6068262;23;20007;-81
2024/04/01 09:20:04;;;;;;;32.70;6.93;;;;;;;;;;6070007;23;20006;-81
2024/04/01 09:22:33;;;;;;;39.13;7.30;;;;;;;;;;6070932;23;20468;-80
2024/04/01 09:24:58;;;;;;;30.55;7.35;;;;;;;;;;6070233;23;20496;-78
2024/04/01 09:27:25;;;;;;;31.40;6.88;;;;;;;;;;6046510;23;20007;-78
2024/04/01 09:29:53;;;;;;;29.05;5.55;;;;;;;;;;6046487;23;20019;-80
2024/04/01 09:32:19;;;;;;;30.83;6.93;;;;;;;;;;6072602;23;20013;-80
2024/04/01 09:34:47;;;;;;;31.25;6.30;;;;;;;;;;6071744;23;20504;-82
2024/04/01 09:37:16;;;;;;;33.42;6.85;;;;;;;;;;6075731;23;20011;-81
2024/04/01 09:39:49;;;;;;;;;;;;;;;;;;6071219;23;20057;-81
2024/04/01 09:42:21;;;;;;;32.63;6.40;;;;;;;;;;6025935;23;20225;-80
2024/04/01 09:44:47;;;;;;;30.70;7.20;;;;;;;;;;6047750;23;20066;-80
2024/04/01 09:47:14;;;;;;;26.83;6.25;;;;;;;;;;6073282;23;20014;-81
2024/04/01 09:49:40;;;;;;;21.52;5.85;;;;;;;;;;6022904;23;20071;-81
2024/04/01 09:52:06;;;;;;;27.58;5.97;;;;;;;;;;6073080;23;20074;-80
2024/04/01 09:54:31;;;;;;;23.33;5.78;;;;;;;;;;6072905;23;20018;-81
2024/04/01 09:57:15;;;;;;;20.88;5.63;;;;;;;;;;6049801;23;20007;-82
2024/04/01 09:59:50;;;;;;;26.88;6.32;;;;;;;;;;6048349;23;20090;-81
2024/04/01 10:02:25;;;;;;;40.38;6.68;;;;;;;;;;6076034;23;20002;-81
2024/04/01 10:04:57;;;;;;;31.02;6.60;;;;;;;;;;6070018;23;20025;-81
2024/04/01 10:07:24;;;;;;;39.30;8.73;;;;;;;;;;6024344;23;20017;-80
2024/04/01 10:10:03;;;;;;;30.73;6.95;;;;;;;;;;6071800;23;20086;-82
2024/04/01 10:12:51;;;;;;;34.92;6.45;;;;;;;;;;6045896;23;20018;-79
2024/04/01 10:15:40;;;;;;;36.58;6.47;;;;;;;;;;6021291;23;20018;-80
2024/04/01 10:18:32;;;;;;;26.80;5.93;;;;;;;;;;6068982;23;20386;-79
2024/04/01 10:21:20;;;;;;;26.52;6.03;;;;;;;;;;5991505;23;20035;-80
2024/04/01 10:23:48;;;;;;;35.25;6.07;;;;;;;;;;6043895;23;20038;-79
2024/04/01 10:26:13;;;;;;;26.38;6.00;;;;;;;;;;6068488;23;20330;-79
2024/04/01 10:28:51;;;;;;;26.67;6.90;;;;;;;;;;6044271;23;20018;-79
2024/04/01 10:31:32;;;;;;;25.92;6.00;;;;;;;;;;6068212;23;20502;-80
2024/04/01 10:34:17;;;;;;;21.63;5.38;;;;;;;;;;6068079;23;20011;-80
2024/04/01 10:36:42;;;;;;;27.67;5.45;;;;;;;;;;6019722;23;20094;-80
2024/04/01 10:39:27;;;;;;;26.58;6.00;;;;;;;;;;6043760;23;20038;-80
2024/04/01 10:41:57;;;;;;;33.83;5.25;;;;;;;;;;6019999;23;20440;-80
2024/04/01 10:44:23;;;;;;;32.17;7.50;;;;;;;;;;6044683;23;20039;-80
2024/04/01 10:47:08;;;;;;;20.25;4.47;;;;;;;;;;6044129;23;20015;-80
2024/04/01 10:49:33;;;;;;;30.10;6.13;;;;;;;;;;6069094;23;20078;-80
2024/04/01 10:52:08;;;;;;;24.13;5.72;;;;;;;;;;6059189;23;20030;-80
2024/04/01 10:54:52;;;;;;;25.52;4.75;;;;;;;;;;6091579;23;20074;-81
2024/04/01 10:57:24;;;;;;;38.92;6.80;;;;;;;;;;6068171;23;20035;-79
2024/04/01 11:00:08;;;;;;;35.72;8.32;;;;;;;;;;6091784;23;20493;-81
2024/04/01 11:02:53;;;;;;;34.53;6.13;;;;;;;;;;6091711;23;20029;-80
2024/04/01 11:05:34;;;;;;;37.85;8.55;;;;;;;;;;6068070;23;20007;-81
2024/04/01 11:08:11;;;;;;;39.47;9.63;;;;;;;;;;6072909;23;20097;-81
2024/04/01 11:10:44;;;;;;;36.03;7.78;;;;;;;;;;6070918;23;20038;-83
2024/04/01 11:13:16;;;;;;;38.20;8.38;;;;;;;;;;6071394;23;20034;-81
2024/04/01 11:15:41;;;;;;;40.17;7.93;;;;;;;;;;6095622;23;20067;-81
2024/04/01 11:18:07;;;;;;;32.83;7.38;;;;;;;;;;6071885;23;20018;-82
2024/04/01 11:20:41;;;;;;;34.53;7.30;;;;;;;;;;6092977;23;20428;-81
2024/04/01 11:23:30;;;;;;;37.08;8.23;;;;;;;;;;6071340;23;20104;-81
2024/04/01 11:26:14;;;;;;;33.70;8.40;;;;;;;;;;6070496;23;20007;-80
2024/04/01 11:28:48;;;;;;;40.50;8.63;;;;;;;;;;6093367;23;20015;-82
2024/04/01 11:31:17;;;;;;;37.63;6.97;;;;;;;;;;6093135;23;20396;-81
2024/04/01 11:33:55;;;;;;;36.40;7.55;;;;;;;;;;6071305;23;20046;-81
2024/04/01 11:36:26;;;;;;;45.05;8.48;;;;;;;;;;6048393;23;20449;-81
2024/04/01 11:38:58;;;;;;;30.95;8.00;;;;;;;;;;6070632;23;20007;-81
2024/04/01 11:41:24;;;;;;;31.63;7.07;;;;;;;;;;6068924;23;20011;-78
2024/04/01 11:43:51;;;;;;;33.90;8.40;;;;;;;;;;6069893;23;20078;-79
2024/04/01 11:46:19;;;;;;;34.92;7.57;;;;;;;;;;6094959;23;20003;-81
2024/04/01 11:48:44;;;;;;;25.70;7.63;;;;;;;;;;6093670;23;20014;-80
2024/04/01 11:51:10;;;;;;;27.90;8.23;;;;;;;;;;6099341;23;20015;-80
2024/04/01 11:53:39;;;;;;;34.92;8.98;;;;;;;;;;6083240;23;20058;-82
2024/04/01 11:56:05;;;;;;;42.00;9.07;;;;;;;;;;6077317;23;20078;-81
2024/04/01 11:58:30;;;;;;;40.20;8.98;;;;;;;;;;6077307;23;20441;-80
2024/04/01 12:00:59;;;;;;;31.90;8.90;;;;;;;;;;6073413;23;20010;-80
2024/04/01 12:03:36;;;;;;;35.65;7.70;;;;;;;;;;6095081;23;20078;-79
2024/04/01 12:06:04;;;;;;;28.67;7.40;;;;;;;;;;6096899;23;20519;-80
2024/04/01 12:08:30;;;;;;;35.05;8.23;;;;;;;;;;6077825;23;20007;-79
2024/04/01 12:10:57;;;;;;;36.70;8.88;;;;;;;;;;6081084;23;20054;-79
2024/04/01 12:13:27;;;;;;;39.40;7.97;;;;;;;;;;6107479;23;20015;-80
2024/04/01 12:15:56;;;;;;;32.67;6.95;;;;;;;;;;6100125;23;20014;-81
2024/04/01 12:18:24;;;;;;;29.10;7.32;;;;;;;;;;6102635;23;20002;-81
2024/04/01 12:20:51;;;;;;;41.17;10.20;;;;;;;;;;6084629;23;20023;-81
2024/04/01 12:23:20;;;;;;;24.73;6.68;;;;;;;;;;6105385;23;20429;-79
2024/04/01 12:25:45;;;;;;;32.17;6.22;;;;;;;;;;6068076;23;20015;-79
2024/04/01 12:28:11;;;;;;;27.77;6.63;;;;;;;;;;6043579;23;20007;-81
2024/04/01 12:30:37;;;;;;;23.85;5.55;;;;;;;;;;6067786;23;20014;-80
2024/04/01 12:33:04;;;;;;;23.92;6.45;;;;;;;;;;6068162;23;20094;-79
2024/04/01 12:35:31;;;;;;;22.75;6.55;;;;;;;;;;6067359;23;20437;-79
2024/04/01 12:38:03;;;;;;;16.58;5.35;;;;;;;;;;6090460;23;20010;-79
2024/04/01 12:40:29;;;;;;;21.58;5.55;;;;;;;;;;6069755;23;20003;-78
2024/04/01 12:42:55;;;;;;;28.10;5.43;;;;;;;;;;6068763;23;20003;-79
2024/04/01 12:45:21;;;;;;;40.53;8.18;;;;;;;;;;6090486;23;20017;-78
2024/04/01 12:47:46;;;;;;;32.78;8.60;;;;;;;;;;6065264;23;20053;-78
2024/04/01 12:50:13;;;;;;;26.60;8.77;;;;;;;;;;6067931;23;20014;-78
2024/04/01 12:53:02;;;;;;;32.85;8.38;;;;;;;;;;6066105;23;20046;-78
2024/04/01 12:55:27;;;;;;;;;;;;;;;;;;6090018;23;20011;-79
2024/04/01 12:57:53;;;;;;;28.35;8.43;;;;;;;;;;6067073;23;19905;-79
2024/04/01 13:00:24;;;;;;;24.02;7.90;;;;;;;;;;6069635;23;20003;-80
2024/04/01 13:03:08;;;;;;;25.05;8.07;;;;;;;;;;6067789;23;20010;-79
2024/04/01 13:05:43;;;;;;;22.63;8.63;;;;;;;;;;6092638;23;20109;-80
2024/04/01 13:08:11;;;;;;;32.60;9.20;;;;;;;;;;6068630;23;20058;-80
2024/04/01 13:10:49;;;;;;;29.17;8.50;;;;;;;;;;6068270;23;20081;-80
2024/04/01 13:13:17;;;;;;;25.73;7.93;;;;;;;;;;6068644;23;20014;-78
2024/04/01 13:15:54;;;;;;;22.38;6.03;;;;;;;;;;6091826;23;20011;-79
2024/04/01 13:18:30;;;;;;;15.57;4.97;;;;;;;;;;6091729;23;20007;-79
2024/04/01 13:21:08;;;;;;;13.75;4.93;;;;;;;;;;6068981;23;20011;-80
2024/04/01 13:23:37;;;;;;;17.13;4.30;;;;;;;;;;6092634;23;20007;-80
2024/04/01 13:26:03;;;;;;;13.60;4.65;;;;;;;;;;6067809;23;20357;-79
2024/04/01 13:28:40;;;;;;;14.38;4.88;;;;;;;;;;6092458;23;20011;-80
2024/04/01 13:31:29;;;;;;;12.10;3.85;;;;;;;;;;6094786;23;20007;-78
2024/04/01 13:34:01;;;;;;;12.40;3.70;;;;;;;;;;6073667;23;20393;-79
2024/04/01 13:36:35;;;;;;;14.07;4.20;;;;;;;;;;6068037;23;20010;-81
2024/04/01 13:39:11;;;;;;;16.38;3.40;;;;;;;;;;6092885;23;20006;-81
2024/04/01 13:41:40;;;;;;;9.38;2.70;;;;;;;;;;6093559;23;20041;-80
2024/04/01 13:44:21;;;;;;;9.13;2.70;;;;;;;;;;6069647;23;20011;-81
2024/04/01 13:46:56;;;;;;;11.95;2.60;;;;;;;;;;6067464;23;20098;-78
2024/04/01 13:49:24;;;;;;;6.38;1.90;;;;;;;;;;6091840;23;20103;-78
2024/04/01 13:52:05;;;;;;;8.73;2.13;;;;;;;;;;6068110;23;20445;-80
2024/04/01 13:54:38;;;;;;;6.28;1.60;;;;;;;;;;6090535;23;20090;-78
2024/04/01 13:57:22;;;;;;;7.15;1.58;;;;;;;;;;6043547;23;20066;-79
2024/04/01 13:59:51;;;;;;;4.15;1.42;;;;;;;;;;6043525;23;20053;-79
2024/04/01 14:02:35;;;;;;;6.30;2.25;;;;;;;;;;6091680;23;20007;-79
2024/04/01 14:05:16;;;;;;;10.27;1.25;;;;;;;;;;6090844;23;20479;-78
2024/04/01 14:08:00;;;;;;;6.18;1.63;;;;;;;;;;6097199;23;20042;-81
2024/04/01 14:10:45;;;;;;;3.55;1.00;;;;;;;;;;6046780;23;20014;-78
2024/04/01 14:13:29;;;;;;;5.53;1.20;;;;;;;;;;6070038;23;20098;-77
2024/04/01 14:15:58;;;;;;;4.80;1.00;;;;;;;;;;6068602;23;20445;-80
2024/04/01 14:18:41;;;;;;;2.33;0.80;;;;;;;;;;6091687;23;20014;-79
2024/04/01 14:21:06;;;;;;;4.53;2.00;;;;;;;;;;6092073;23;20011;-79
2024/04/01 14:23:35;;;;;;;5.15;1.00;;;;;;;;;;6067488;23;20193;-79
2024/04/01 14:26:01;;;;;;;2.95;0.90;;;;;;;;;;6069245;23;20472;-78
2024/04/01 14:28:27;;;;;;;2.55;0.80;;;;;;;;;;6067774;23;20417;-80
2024/04/01 14:30:53;;;;;;;1.55;0.60;;;;;;;;;;6068200;23;20034;-78